Time;durP1;ratioP1;P1;durP2;ratioP2;P2;SDS_P1;SDS_P2;PMS_P1;PMS_P2;Temp;Humidity;BMP_temperature;BMP_pressure;BME280_temperature;BME280_humidity;BME280_pressure;Samples;Min_cycle;Max_cycle;Signal;HPM_P1;HPM_P2
2022/04/09 00:02:14;;;;;;;5.22;1.42;;;15.30;90.50;;;;;;5093940;28;20489;-69
2022/04/09 00:04:40;;;;;;;4.57;1.40;;;15.30;88.40;;;;;;5094022;28;20047;-63
2022/04/09 00:07:05;;;;;;;5.28;1.27;;;15.30;90.40;;;;;;5093380;28;20056;-65
2022/04/09 00:09:31;;;;;;;3.63;1.00;;;15.40;88.60;;;;;;5093652;28;20093;-63
2022/04/09 00:11:57;;;;;;;4.18;1.30;;;15.40;88.70;;;;;;5073912;28;20045;-63
2022/04/09 00:14:23;;;;;;;3.42;1.23;;;15.40;90.50;;;;;;5075717;28;20048;-64
2022/04/09 00:16:49;;;;;;;5.55;1.88;;;15.10;88.50;;;;;;5094566;28;20081;-67
2022/04/09 00:19:15;;;;;;;5.68;1.17;;;15.10;90.40;;;;;;5093967;28;20040;-65
2022/04/09 00:21:41;;;;;;;4.38;1.30;;;15.60;88.70;;;;;;5076502;28;20047;-63
2022/04/09 00:24:07;;;;;;;2.75;1.02;;;15.30;90.40;;;;;;5095053;28;20126;-63
2022/04/09 00:26:32;;;;;;;3.85;1.08;;;15.40;90.50;;;;;;5093037;28;20482;-65
2022/04/09 00:28:58;;;;;;;2.88;1.00;;;15.30;90.40;;;;;;5074828;28;20106;-64
2022/04/09 00:31:24;;;;;;;4.18;1.55;;;15.30;90.40;;;;;;5074006;28;20401;-63
2022/04/09 00:33:49;;;;;;;3.38;1.20;;;15.40;90.50;;;;;;5074271;28;20048;-63
2022/04/09 00:36:15;;;;;;;2.55;0.93;;;15.30;90.40;;;;;;5073728;28;20071;-63
2022/04/09 00:38:41;;;;;;;5.10;1.27;;;15.20;90.30;;;;;;5072519;28;20045;-64
2022/04/09 00:41:10;;;;;;;5.22;1.08;;;15.20;90.30;;;;;;5074167;28;20044;-62
2022/04/09 00:43:41;;;;;;;2.80;0.90;;;15.00;88.70;;;;;;5089803;28;20060;-64
2022/04/09 00:46:08;;;;;;;4.82;1.45;;;15.30;90.20;;;;;;5055828;28;20055;-62
2022/04/09 00:48:36;;;;;;;3.92;0.85;;;15.20;86.60;;;;;;5072248;28;20123;-64
2022/04/09 00:51:03;;;;;;;3.78;1.25;;;15.30;88.90;;;;;;5072760;28;20044;-64
2022/04/09 00:53:33;;;;;;;5.32;1.25;;;15.20;90.40;;;;;;5078755;28;20549;-63
2022/04/09 00:56:15;;;;;;;3.70;1.20;;;15.20;90.20;;;;;;5076095;28;20439;-64
2022/04/09 00:58:56;;;;;;;3.83;1.20;;;15.40;87.30;;;;;;5093706;28;20461;-65
2022/04/09 01:01:27;;;;;;;3.78;0.95;;;;;;;;;;5087576;28;20041;-63
2022/04/09 01:03:53;;;;;;;3.05;1.15;;;15.00;90.20;;;;;;5073788;28;20137;-62
2022/04/09 01:06:18;;;;;;;3.45;0.90;;;15.30;90.40;;;;;;5073387;28;20080;-63
2022/04/09 01:08:44;;;;;;;3.42;1.10;;;15.30;88.20;;;;;;5073711;28;20055;-69
2022/04/09 01:11:12;;;;;;;3.55;1.20;;;15.20;90.20;;;;;;5072721;28;20059;-68
2022/04/09 01:13:38;;;;;;;2.75;1.10;;;15.30;88.00;;;;;;5073788;28;20463;-69
2022/04/09 01:16:04;;;;;;;3.83;1.30;;;15.30;90.20;;;;;;5090941;28;20071;-63
2022/04/09 01:18:33;;;;;;;3.88;1.20;;;;;;;;;;5086384;28;20131;-64
2022/04/09 01:21:02;;;;;;;5.22;1.08;;;15.10;87.80;;;;;;5073582;28;20123;-62
2022/04/09 01:23:28;;;;;;;7.55;1.40;;;15.20;90.20;;;;;;5073259;28;20048;-63
2022/04/09 01:25:58;;;;;;;4.72;1.10;;;15.10;87.80;;;;;;5073632;28;20045;-63
2022/04/09 01:28:25;;;;;;;4.80;1.30;;;15.20;90.10;;;;;;5072823;28;20040;-62
2022/04/09 01:30:51;;;;;;;5.10;1.10;;;;;;;;;;5073501;28;20115;-62
2022/04/09 01:33:17;;;;;;;3.15;1.02;;;15.20;89.80;;;;;;5073484;28;20444;-63
2022/04/09 01:35:43;;;;;;;6.10;1.20;;;15.20;90.10;;;;;;5081175;28;20131;-64
2022/04/09 01:38:09;;;;;;;5.53;1.65;;;15.20;90.10;;;;;;5094388;28;20044;-64
2022/04/09 01:40:35;;;;;;;3.58;1.13;;;;;;;;;;5096661;28;20051;-65
2022/04/09 01:43:01;;;;;;;5.40;1.20;;;14.80;90.00;;;;;;5086209;28;20052;-63
2022/04/09 01:45:29;;;;;;;4.47;1.58;;;15.10;87.70;;;;;;5078101;28;20107;-63
2022/04/09 01:47:55;;;;;;;4.13;1.10;;;15.20;90.20;;;;;;5077369;28;20044;-63
2022/04/09 01:50:26;;;;;;;4.80;1.40;;;15.10;87.60;;;;;;5077366;28;20097;-62
2022/04/09 01:52:52;;;;;;;4.32;1.30;;;15.20;90.10;;;;;;5087204;28;20101;-63
2022/04/09 01:55:18;;;;;;;3.83;1.17;;;15.10;90.00;;;;;;5097588;28;20375;-62
2022/04/09 01:57:44;;;;;;;5.85;1.25;;;;;;;;;;5095981;28;20189;-64
2022/04/09 02:00:11;;;;;;;5.53;1.20;;;14.80;90.10;;;;;;5097459;28;20071;-62
2022/04/09 02:02:36;;;;;;;4.43;1.00;;;15.20;87.90;;;;;;5096635;28;20047;-63
2022/04/09 02:05:03;;;;;;;3.20;1.00;;;14.80;90.10;;;;;;5078743;28;20051;-63
2022/04/09 02:07:28;;;;;;;5.47;1.30;;;15.10;88.00;;;;;;5097341;28;20074;-62
2022/04/09 02:09:54;;;;;;;3.35;0.90;;;15.50;90.20;;;;;;5084736;28;20511;-63
2022/04/09 02:12:20;;;;;;;4.85;1.30;;;15.20;90.20;;;;;;5075396;28;20063;-63
2022/04/09 02:14:46;;;;;;;3.85;1.10;;;15.30;90.10;;;;;;5076878;28;20123;-63
2022/04/09 02:17:12;;;;;;;3.00;0.70;;;15.30;90.10;;;;;;5077722;28;20486;-63
2022/04/09 02:19:38;;;;;;;3.03;1.00;;;15.30;87.80;;;;;;5076258;28;20413;-63
2022/04/09 02:22:05;;;;;;;3.30;1.00;;;;;;;;;;5076471;28;20402;-63
2022/04/09 02:24:31;;;;;;;3.28;0.77;;;15.60;90.40;;;;;;5076801;28;20406;-64
2022/04/09 02:26:56;;;;;;;3.53;1.20;;;15.40;88.20;;;;;;5087267;28;20051;-62
2022/04/09 02:29:22;;;;;;;3.22;1.10;;;15.60;90.30;;;;;;5096514;28;20044;-64
2022/04/09 02:31:48;;;;;;;4.00;1.02;;;15.30;90.30;;;;;;5096627;28;20093;-64
2022/04/09 02:34:14;;;;;;;5.70;1.23;;;15.40;87.30;;;;;;5096478;28;20052;-63
2022/04/09 02:36:39;;;;;;;3.45;1.00;;;15.10;90.20;;;;;;5078702;28;20041;-63
2022/04/09 02:39:05;;;;;;;5.03;1.00;;;;;;;;;;5076504;28;20044;-63
2022/04/09 02:41:31;;;;;;;2.90;0.90;;;15.30;90.20;;;;;;5076434;28;20093;-64
2022/04/09 02:43:57;;;;;;;1.30;0.63;;;;;;;;;;5093559;28;20048;-63
2022/04/09 02:46:24;;;;;;;2.85;1.00;;;15.20;90.30;;;;;;5096315;28;20040;-63
2022/04/09 02:48:50;;;;;;;4.68;1.17;;;15.20;90.20;;;;;;5094891;28;20040;-62
2022/04/09 02:51:16;;;;;;;5.05;1.05;;;15.30;90.20;;;;;;5096108;28;20048;-62
2022/04/09 02:53:42;;;;;;;4.18;1.00;;;15.00;90.10;;;;;;5094024;28;20051;-62
2022/04/09 02:56:08;;;;;;;3.75;1.00;;;15.30;90.20;;;;;;5096433;28;20044;-65
2022/04/09 02:58:33;;;;;;;5.88;1.42;;;15.00;87.60;;;;;;5096419;28;20072;-62
2022/04/09 03:00:59;;;;;;;3.15;1.02;;;15.10;90.10;;;;;;5084818;28;20427;-62
2022/04/09 03:03:25;;;;;;;2.35;0.88;;;15.20;87.70;;;;;;5074936;28;20482;-63
2022/04/09 03:05:51;;;;;;;3.25;1.00;;;15.00;90.00;;;;;;5075699;28;20128;-63
2022/04/09 03:08:16;;;;;;;2.97;1.20;;;15.30;90.10;;;;;;5076167;28;20045;-61
2022/04/09 03:10:42;;;;;;;3.65;1.17;;;15.00;87.50;;;;;;5076231;28;20037;-62
2022/04/09 03:13:08;;;;;;;3.50;1.13;;;15.10;90.10;;;;;;5076103;28;20055;-63
2022/04/09 03:15:34;;;;;;;2.83;0.90;;;15.10;87.80;;;;;;5087183;28;20115;-62
2022/04/09 03:17:59;;;;;;;2.97;0.90;;;15.00;90.10;;;;;;5076789;28;20093;-63
2022/04/09 03:20:25;;;;;;;3.28;0.75;;;15.10;90.20;;;;;;5094752;28;20401;-64
2022/04/09 03:22:51;;;;;;;4.53;0.93;;;15.00;87.70;;;;;;5095646;28;20504;-63
2022/04/09 03:25:17;;;;;;;2.40;0.80;;;15.00;90.00;;;;;;5095519;28;20047;-64
2022/04/09 03:27:43;;;;;;;3.60;0.88;;;15.10;87.60;;;;;;5094593;28;20085;-63
2022/04/09 03:30:09;;;;;;;2.28;0.80;;;15.30;89.10;;;;;;5095733;28;20119;-64
2022/04/09 03:32:38;;;;;;;4.78;1.00;;;15.10;86.00;;;;;;5094950;28;20432;-64
2022/04/09 03:35:05;;;;;;;3.30;0.82;;;15.00;90.00;;;;;;5083519;28;20512;-63
2022/04/09 03:37:31;;;;;;;2.78;0.90;;;15.00;90.00;;;;;;5074190;28;20185;-62
2022/04/09 03:39:56;;;;;;;1.67;0.73;;;15.00;90.00;;;;;;5074100;28;20128;-62
2022/04/09 03:42:22;;;;;;;4.40;1.13;;;15.00;90.00;;;;;;5081253;28;20047;-62
2022/04/09 03:44:48;;;;;;;2.05;0.80;;;;;;;;;;5094632;28;20040;-63
2022/04/09 03:47:14;;;;;;;5.68;1.30;;;15.00;90.20;;;;;;5095370;28;20059;-62
2022/04/09 03:49:40;;;;;;;1.95;0.77;;;14.90;89.90;;;;;;5095388;28;20490;-64
2022/04/09 03:52:06;;;;;;;4.43;1.15;;;15.00;90.00;;;;;;5083042;28;20119;-63
2022/04/09 03:54:34;;;;;;;4.10;1.08;;;14.90;88.80;;;;;;5075051;28;20375;-65
2022/04/09 03:57:00;;;;;;;2.92;1.02;;;15.10;90.00;;;;;;5075011;28;20040;-62
2022/04/09 03:59:25;;;;;;;4.18;1.20;;;14.90;90.00;;;;;;5078671;28;20115;-63
2022/04/09 04:01:52;;;;;;;4.38;1.10;;;14.70;89.70;;;;;;5075354;28;20466;-63
2022/04/09 04:04:17;;;;;;;1.95;0.70;;;15.00;87.30;;;;;;5073559;28;20080;-65
2022/04/09 04:06:44;;;;;;;3.70;1.13;;;15.10;89.90;;;;;;5074381;28;20099;-63
2022/04/09 04:09:09;;;;;;;2.67;1.05;;;15.00;90.00;;;;;;5085745;28;20052;-63
2022/04/09 04:11:35;;;;;;;2.58;1.00;;;14.90;87.30;;;;;;5093428;28;20405;-62
2022/04/09 04:14:01;;;;;;;3.92;1.10;;;14.90;89.90;;;;;;5094593;28;20125;-63
2022/04/09 04:16:26;;;;;;;3.90;1.08;;;15.00;87.50;;;;;;5093603;28;20040;-63
2022/04/09 04:18:52;;;;;;;2.28;0.77;;;15.00;88.20;;;;;;5092706;28;20048;-63
2022/04/09 04:21:19;;;;;;;4.88;1.20;;;14.90;90.00;;;;;;5094459;28;20047;-64
2022/04/09 04:23:44;;;;;;;4.15;1.00;;;15.00;87.40;;;;;;5094799;28;20058;-62
2022/04/09 04:26:10;;;;;;;2.92;1.05;;;14.90;90.00;;;;;;5081426;28;20040;-63
2022/04/09 04:28:36;;;;;;;2.85;0.95;;;15.00;90.10;;;;;;5072823;28;20090;-63
2022/04/09 04:31:01;;;;;;;4.88;1.25;;;15.00;90.10;;;;;;5074346;28;20041;-63
2022/04/09 04:33:27;;;;;;;3.30;0.85;;;15.00;90.10;;;;;;5074285;28;20197;-63
2022/04/09 04:35:53;;;;;;;4.68;1.02;;;15.00;90.00;;;;;;5076309;28;20182;-63
2022/04/09 04:38:18;;;;;;;4.35;1.10;;;14.90;90.00;;;;;;5094499;28;20047;-62
2022/04/09 04:40:44;;;;;;;3.63;1.05;;;15.20;87.60;;;;;;5094470;28;20106;-63
2022/04/09 04:43:10;;;;;;;3.28;1.13;;;15.10;90.10;;;;;;5079706;28;20060;-63
2022/04/09 04:45:35;;;;;;;3.28;0.90;;;15.00;89.90;;;;;;5073749;28;20363;-64
2022/04/09 04:48:01;;;;;;;4.18;1.33;;;15.00;90.00;;;;;;5072505;28;20091;-62
2022/04/09 04:50:27;;;;;;;4.30;1.25;;;15.00;89.90;;;;;;5073947;28;20036;-62
2022/04/09 04:52:52;;;;;;;3.85;1.05;;;15.00;89.90;;;;;;5093188;28;20055;-64
2022/04/09 04:55:18;;;;;;;4.65;1.02;;;15.20;87.50;;;;;;5094213;28;20072;-62
2022/04/09 04:57:46;;;;;;;5.18;1.17;;;14.90;89.80;;;;;;5094139;28;20477;-63
2022/04/09 05:00:13;;;;;;;3.53;1.00;;;15.10;87.40;;;;;;5080860;28;20055;-66
2022/04/09 05:02:39;;;;;;;2.53;1.00;;;15.00;89.80;;;;;;5072533;28;20051;-67
2022/04/09 05:05:05;;;;;;;4.07;1.20;;;14.90;90.00;;;;;;5073320;28;20056;-67
2022/04/09 05:07:38;;;;;;;5.10;1.10;;;;;;;;;;5074073;28;20054;-67
2022/04/09 05:10:06;;;;;;;5.53;1.70;;;15.00;89.80;;;;;;5073795;28;20032;-67
2022/04/09 05:12:33;;;;;;;5.75;1.40;;;14.80;87.10;;;;;;5072737;28;20123;-62
2022/04/09 05:14:59;;;;;;;4.63;1.10;;;14.70;89.50;;;;;;5079821;28;20040;-62
2022/04/09 05:17:25;;;;;;;4.60;1.33;;;15.00;87.00;;;;;;5077335;28;20052;-62
2022/04/09 05:19:51;;;;;;;4.38;1.27;;;15.00;89.60;;;;;;5072440;28;20040;-62
2022/04/09 05:22:16;;;;;;;5.38;1.50;;;15.20;89.70;;;;;;5073346;28;20049;-64
2022/04/09 05:24:42;;;;;;;5.60;1.42;;;15.30;89.60;;;;;;5073849;28;20050;-62
2022/04/09 05:27:08;;;;;;;4.28;1.33;;;;;;;;;;5073265;28;20076;-63
2022/04/09 05:29:34;;;;;;;4.63;1.25;;;14.90;89.30;;;;;;5071988;28;20052;-61
2022/04/09 05:32:00;;;;;;;5.93;1.90;;;15.10;89.40;;;;;;5073562;28;20040;-63
2022/04/09 05:34:25;;;;;;;6.07;1.13;;;15.20;89.40;;;;;;5088186;28;20379;-62
2022/04/09 05:36:51;;;;;;;5.25;1.20;;;15.10;89.10;;;;;;5093717;28;20127;-63
2022/04/09 05:39:17;;;;;;;5.57;1.35;;;15.30;89.20;;;;;;5094114;28;20453;-62
2022/04/09 05:41:43;;;;;;;6.75;1.45;;;15.40;89.20;;;;;;5091682;28;20047;-64
2022/04/09 05:44:09;;;;;;;8.05;1.60;;;15.30;89.10;;;;;;5073410;28;20052;-62
2022/04/09 05:46:35;;;;;;;5.75;1.35;;;15.20;89.10;;;;;;5071857;28;20133;-62
2022/04/09 05:49:02;;;;;;;4.07;1.20;;;15.20;89.10;;;;;;5073003;28;20129;-62
2022/04/09 05:51:28;;;;;;;5.10;1.60;;;15.30;89.10;;;;;;5073894;28;20139;-64
2022/04/09 05:53:55;;;;;;;5.47;1.48;;;15.30;89.10;;;;;;5073371;28;20461;-63
2022/04/09 05:56:24;;;;;;;5.18;1.40;;;15.30;86.60;;;;;;5055644;28;20044;-62
2022/04/09 05:58:50;;;;;;;6.85;1.67;;;15.30;89.00;;;;;;5073801;28;20561;-62
2022/04/09 06:01:16;;;;;;;5.82;1.70;;;15.30;86.40;;;;;;5072997;28;20040;-64
2022/04/09 06:03:42;;;;;;;7.70;1.80;;;15.40;89.00;;;;;;5073237;28;20131;-62
2022/04/09 06:06:09;;;;;;;5.05;1.38;;;15.60;86.30;;;;;;5071351;28;20092;-63
2022/04/09 06:08:34;;;;;;;4.68;1.50;;;15.60;88.80;;;;;;5087200;28;20539;-64
2022/04/09 06:11:00;;;;;;;5.53;1.55;;;15.70;88.70;;;;;;5093363;28;20074;-68
2022/04/09 06:13:27;;;;;;;5.82;1.63;;;16.00;86.00;;;;;;5093098;28;20052;-66
2022/04/09 06:15:53;;;;;;;4.85;1.45;;;15.90;88.30;;;;;;5091126;28;20029;-67
2022/04/09 06:18:19;;;;;;;6.53;1.42;;;16.10;85.60;;;;;;5093338;28;20177;-67
2022/04/09 06:20:45;;;;;;;6.93;1.85;;;;;;;;;;5093257;28;20085;-66
2022/04/09 06:23:10;;;;;;;6.97;1.58;;;16.50;87.80;;;;;;5093743;28;20044;-62
2022/04/09 06:25:36;;;;;;;6.03;1.70;;;16.40;84.70;;;;;;5079022;28;20065;-63
2022/04/09 06:28:03;;;;;;;4.53;1.65;;;16.40;87.30;;;;;;5077172;28;20473;-63
2022/04/09 06:30:29;;;;;;;5.80;1.48;;;;;;;;;;5087797;28;20051;-63
2022/04/09 06:32:55;;;;;;;6.07;1.70;;;16.60;87.40;;;;;;5092956;28;20085;-63
2022/04/09 06:35:21;;;;;;;6.40;1.83;;;16.40;87.30;;;;;;5095034;28;20051;-62
2022/04/09 06:37:47;;;;;;;6.47;1.73;;;;;;;;;;5079122;28;20044;-64
2022/04/09 06:40:14;;;;;;;6.60;1.70;;;16.50;87.50;;;;;;5076476;28;20389;-63
2022/04/09 06:42:40;;;;;;;5.70;1.67;;;16.60;87.60;;;;;;5092867;28;20483;-62
2022/04/09 06:45:08;;;;;;;6.78;1.63;;;16.40;87.80;;;;;;5079345;28;20047;-62
2022/04/09 06:47:37;;;;;;;6.03;1.58;;;16.40;87.50;;;;;;5077367;28;20052;-62
2022/04/09 06:50:11;;;;;;;8.25;1.65;;;16.10;87.50;;;;;;5076306;28;20064;-62
2022/04/09 06:52:37;;;;;;;4.65;1.48;;;16.40;87.60;;;;;;5076697;28;20045;-62
2022/04/09 06:55:04;;;;;;;5.82;1.70;;;16.40;87.60;;;;;;5075840;28;20052;-62
2022/04/09 06:57:29;;;;;;;4.40;1.50;;;16.70;87.40;;;;;;5077587;28;20051;-62
2022/04/09 06:59:56;;;;;;;5.25;1.50;;;16.70;87.30;;;;;;5075404;28;20041;-62
2022/04/09 07:02:22;;;;;;;5.47;1.63;;;16.80;84.40;;;;;;5076645;28;20185;-62
2022/04/09 07:04:48;;;;;;;6.63;1.83;;;17.00;86.90;;;;;;5088832;28;20118;-62
2022/04/09 07:07:22;;;;;;;5.30;1.60;;;17.00;84.10;;;;;;5095927;28;20593;-62
2022/04/09 07:09:48;;;;;;;5.05;1.70;;;17.10;86.60;;;;;;5096180;28;20500;-62
2022/04/09 07:12:14;;;;;;;5.38;1.50;;;17.30;83.60;;;;;;5096202;28;20036;-62
2022/04/09 07:14:40;;;;;;;5.25;1.70;;;17.30;83.80;;;;;;5088845;28;20501;-68
2022/04/09 07:17:05;;;;;;;6.25;2.40;;;17.40;86.00;;;;;;5075056;28;20192;-68
2022/04/09 07:19:31;;;;;;;5.97;2.10;;;17.70;83.50;;;;;;5075502;28;20044;-66
2022/04/09 07:21:58;;;;;;;5.85;1.50;;;17.70;86.10;;;;;;5074138;28;20078;-65
2022/04/09 07:24:24;;;;;;;8.77;1.98;;;;;;;;;;5075088;28;20052;-66
2022/04/09 07:26:50;;;;;;;4.03;1.30;;;17.60;85.90;;;;;;5077170;28;20041;-66
2022/04/09 07:29:16;;;;;;;5.85;1.40;;;18.10;86.00;;;;;;5075456;28;20047;-62
2022/04/09 07:31:42;;;;;;;5.10;1.58;;;17.90;85.80;;;;;;5076234;28;20049;-63
2022/04/09 07:34:08;;;;;;;6.03;1.60;;;17.60;84.00;;;;;;5077651;28;20032;-62
2022/04/09 07:36:33;;;;;;;6.03;1.55;;;18.20;82.90;;;;;;5083679;28;20418;-62
2022/04/09 07:38:59;;;;;;;7.03;2.05;;;17.90;85.40;;;;;;5075419;28;20033;-62
2022/04/09 07:41:25;;;;;;;4.80;1.52;;;18.00;85.60;;;;;;5075334;28;20494;-63
2022/04/09 07:43:51;;;;;;;5.65;1.83;;;18.00;85.60;;;;;;5074196;28;20037;-61
2022/04/09 07:46:17;;;;;;;5.45;1.80;;;18.10;85.50;;;;;;5076444;28;20071;-62
2022/04/09 07:48:42;;;;;;;5.03;1.50;;;18.10;85.50;;;;;;5075937;28;20501;-63
2022/04/09 07:51:08;;;;;;;5.43;1.83;;;18.10;85.40;;;;;;5095367;28;20036;-62
2022/04/09 07:53:34;;;;;;;6.22;1.90;;;18.10;85.20;;;;;;5095315;28;20414;-63
2022/04/09 07:56:00;;;;;;;6.45;1.95;;;18.30;85.20;;;;;;5095330;28;20052;-62
2022/04/09 07:58:25;;;;;;;7.90;2.00;;;18.20;85.00;;;;;;5079731;28;20402;-62
2022/04/09 08:00:51;;;;;;;7.28;1.90;;;18.50;85.10;;;;;;5092274;28;20405;-62
2022/04/09 08:03:17;;;;;;;7.55;2.10;;;18.30;84.90;;;;;;5093221;28;20040;-61
2022/04/09 08:05:43;;;;;;;10.05;2.38;;;18.10;84.80;;;;;;5094343;28;20484;-65
2022/04/09 08:08:10;;;;;;;7.30;2.22;;;;;;;;;;5074352;28;20127;-62
2022/04/09 08:10:39;;;;;;;8.18;2.33;;;18.60;85.10;;;;;;5073221;28;20576;-63
2022/04/09 08:13:05;;;;;;;8.52;2.55;;;18.40;82.40;;;;;;5074750;28;20524;-64
2022/04/09 08:15:31;;;;;;;6.30;2.30;;;18.50;82.60;;;;;;5087120;28;20056;-62
2022/04/09 08:17:57;;;;;;;5.38;2.28;;;18.50;85.40;;;;;;5092956;28;20144;-62
2022/04/09 08:20:23;;;;;;;10.57;3.40;;;18.60;82.80;;;;;;5076132;28;20116;-64
2022/04/09 08:22:49;;;;;;;6.85;2.28;;;18.60;85.50;;;;;;5076138;28;20481;-64
2022/04/09 08:25:15;;;;;;;10.23;2.70;;;18.40;85.80;;;;;;5093653;28;20048;-62
2022/04/09 08:27:43;;;;;;;7.25;2.22;;;18.10;85.30;;;;;;5095164;28;20044;-62
2022/04/09 08:30:10;;;;;;;9.02;2.20;;;18.50;85.60;;;;;;5083730;28;20044;-63
2022/04/09 08:32:36;;;;;;;7.68;2.35;;;18.40;82.70;;;;;;5074369;28;20044;-62
2022/04/09 08:35:03;;;;;;;8.23;2.55;;;18.50;85.10;;;;;;5075273;28;20170;-63
2022/04/09 08:37:28;;;;;;;7.63;2.40;;;18.60;85.30;;;;;;5074262;28;20394;-62
2022/04/09 08:39:55;;;;;;;7.65;3.05;;;18.30;85.20;;;;;;5075332;28;20040;-62
2022/04/09 08:42:21;;;;;;;6.65;2.30;;;18.30;85.00;;;;;;5074143;28;20047;-61
2022/04/09 08:44:48;;;;;;;7.30;2.60;;;18.70;85.20;;;;;;5074143;28;20374;-68
2022/04/09 08:47:15;;;;;;;6.00;2.35;;;18.40;85.00;;;;;;5074049;28;20036;-69
2022/04/09 08:49:46;;;;;;;10.35;2.95;;;18.30;82.40;;;;;;5074011;28;20402;-69
2022/04/09 08:52:12;;;;;;;7.50;2.20;;;18.40;84.90;;;;;;5075207;28;20457;-62
2022/04/09 08:54:38;;;;;;;6.50;2.33;;;18.30;85.60;;;;;;5072768;28;20080;-62
2022/04/09 08:57:04;;;;;;;8.02;2.30;;;18.20;82.80;;;;;;5077428;28;20040;-62
2022/04/09 08:59:30;;;;;;;7.45;2.20;;;18.30;85.90;;;;;;5077773;28;20086;-62
2022/04/09 09:01:56;;;;;;;8.27;2.63;;;18.00;85.80;;;;;;5075695;28;20037;-62
2022/04/09 09:04:22;;;;;;;6.80;2.60;;;17.80;85.90;;;;;;5074365;28;20397;-68
2022/04/09 09:06:48;;;;;;;6.93;2.05;;;17.80;85.90;;;;;;5073636;28;20109;-62
2022/04/09 09:09:31;;;;;;;6.68;2.25;;;18.30;83.70;;;;;;5073730;28;20109;-61
2022/04/09 09:12:02;;;;;;;5.28;1.88;;;18.10;86.10;;;;;;5076137;28;20049;-61
2022/04/09 09:14:32;;;;;;;8.98;2.50;;;18.20;85.90;;;;;;5090050;28;20487;-62
2022/04/09 09:16:58;;;;;;;6.10;1.88;;;18.10;85.70;;;;;;5093868;28;20047;-61
2022/04/09 09:19:43;;;;;;;5.15;1.85;;;17.80;81.40;;;;;;5093871;28;20416;-62
2022/04/09 09:22:09;;;;;;;3.80;1.50;;;18.00;85.50;;;;;;5091935;28;20178;-64
2022/04/09 09:24:35;;;;;;;5.68;2.20;;;18.00;82.80;;;;;;5074905;28;20086;-62
2022/04/09 09:27:04;;;;;;;5.57;2.13;;;17.90;85.70;;;;;;5073232;28;20049;-63
2022/04/09 09:29:30;;;;;;;7.53;2.33;;;17.80;83.30;;;;;;5071669;28;20044;-62
2022/04/09 09:31:56;;;;;;;5.15;1.85;;;17.70;86.20;;;;;;5082739;28;20044;-62
2022/04/09 09:34:22;;;;;;;4.18;1.45;;;17.70;83.90;;;;;;5076284;28;20040;-62
2022/04/09 09:36:49;;;;;;;4.88;1.65;;;;;;;;;;5080480;28;20044;-62
2022/04/09 09:39:15;;;;;;;5.10;1.70;;;17.70;86.70;;;;;;5072302;28;20127;-62
2022/04/09 09:41:48;;;;;;;6.45;2.10;;;17.80;86.80;;;;;;5072192;28;20079;-62
2022/04/09 09:44:14;;;;;;;;;;;17.40;84.30;;;;;;5073544;28;20152;-62
2022/04/09 09:46:40;;;;;;;6.90;2.03;;;;;;;;;;5073456;28;19928;-62
2022/04/09 09:49:06;;;;;;;5.47;1.70;;;;;;;;;;5072653;28;20071;-62
2022/04/09 09:51:32;;;;;;;4.93;1.67;;;17.50;86.90;;;;;;5072173;28;20086;-69
2022/04/09 09:54:08;;;;;;;10.45;1.98;;;17.50;86.90;;;;;;5073383;28;20044;-62
2022/04/09 09:56:41;;;;;;;7.30;2.25;;;17.80;83.20;;;;;;5071830;28;20040;-63
2022/04/09 09:59:13;;;;;;;7.40;2.03;;;17.70;84.00;;;;;;5074188;28;20405;-62
2022/04/09 10:01:41;;;;;;;9.10;2.15;;;17.90;86.40;;;;;;5076144;28;20429;-65
2022/04/09 10:04:07;;;;;;;9.98;2.10;;;17.80;83.60;;;;;;5077523;28;20041;-65
2022/04/09 10:06:34;;;;;;;8.23;2.17;;;18.00;85.60;;;;;;5076326;28;20115;-71
2022/04/09 10:09:01;;;;;;;12.18;2.42;;;18.00;86.30;;;;;;5075947;28;20103;-74
2022/04/09 10:11:27;;;;;;;8.90;2.45;;;17.90;86.10;;;;;;5059612;28;20494;-62
2022/04/09 10:13:55;;;;;;;8.43;2.20;;;17.90;85.80;;;;;;5089189;28;20116;-62
2022/04/09 10:16:21;;;;;;;7.05;2.40;;;17.90;83.00;;;;;;5095909;28;20028;-62
2022/04/09 10:18:48;;;;;;;8.10;2.63;;;17.90;85.70;;;;;;5075915;28;20087;-62
2022/04/09 10:21:13;;;;;;;8.18;2.53;;;18.00;82.90;;;;;;5076869;28;20082;-63
2022/04/09 10:23:40;;;;;;;8.48;2.97;;;17.80;85.60;;;;;;5059576;28;20454;-62
2022/04/09 10:26:06;;;;;;;7.85;2.33;;;17.70;85.70;;;;;;5076807;28;20055;-62
2022/04/09 10:28:34;;;;;;;9.50;2.40;;;17.90;82.80;;;;;;5075186;28;20056;-61
2022/04/09 10:31:03;;;;;;;9.60;2.70;;;17.60;85.70;;;;;;5076565;28;20127;-62
2022/04/09 10:33:33;;;;;;;6.90;2.10;;;17.80;83.20;;;;;;5075542;28;20406;-62
2022/04/09 10:36:02;;;;;;;9.77;2.88;;;17.90;86.00;;;;;;5042350;28;20541;-62
2022/04/09 10:38:28;;;;;;;9.10;2.55;;;17.70;83.50;;;;;;5076245;28;20490;-62
2022/04/09 10:40:57;;;;;;;8.45;2.20;;;17.90;85.90;;;;;;5094891;28;20083;-62
2022/04/09 10:43:22;;;;;;;8.40;2.42;;;17.90;86.30;;;;;;5095458;28;20435;-63
2022/04/09 10:46:11;;;;;;;9.52;2.22;;;17.50;85.90;;;;;;5096728;28;20040;-63
2022/04/09 10:48:42;;;;;;;7.13;2.10;;;18.00;86.00;;;;;;5092691;28;20052;-63
2022/04/09 10:51:08;;;;;;;8.07;2.05;;;17.60;85.60;;;;;;5096524;28;20111;-63
2022/04/09 10:53:41;;;;;;;7.15;2.33;;;18.10;85.90;;;;;;5096232;28;20052;-64
2022/04/09 10:56:17;;;;;;;8.48;2.08;;;17.70;85.60;;;;;;5095684;28;20097;-64
2022/04/09 10:58:59;;;;;;;7.43;2.13;;;17.90;85.90;;;;;;5096497;28;20387;-64
2022/04/09 11:01:43;;;;;;;7.75;1.67;;;18.00;86.00;;;;;;5096346;28;20044;-63
2022/04/09 11:04:45;;;;;;;7.15;1.70;;;17.90;83.20;;;;;;5096655;28;20048;-63
2022/04/09 11:07:14;;;;;;;8.23;1.75;;;17.80;83.20;;;;;;5096050;28;20040;-62
2022/04/09 11:09:43;;;;;;;6.00;1.67;;;17.70;85.80;;;;;;5095538;28;20714;-63
2022/04/09 11:12:09;;;;;;;7.05;1.92;;;17.80;86.00;;;;;;5096038;28;20393;-62
2022/04/09 11:14:51;;;;;;;6.57;1.52;;;17.90;86.20;;;;;;5079213;28;20047;-62
2022/04/09 11:17:33;;;;;;;7.80;1.70;;;17.50;85.90;;;;;;5075880;28;20059;-63
2022/04/09 11:20:02;;;;;;;6.30;1.70;;;17.70;86.40;;;;;;5075788;28;20174;-63
2022/04/09 11:22:40;;;;;;;7.03;1.70;;;17.80;83.50;;;;;;5076294;28;20044;-63
2022/04/09 11:25:17;;;;;;;4.03;1.70;;;17.80;83.70;;;;;;5075723;28;20460;-62
2022/04/09 11:27:43;;;;;;;6.03;1.50;;;17.90;86.30;;;;;;5074456;28;20141;-63
2022/04/09 11:30:09;;;;;;;7.40;1.50;;;17.80;86.70;;;;;;5074686;28;20505;-63
2022/04/09 11:32:38;;;;;;;6.43;1.60;;;;;;;;;;5075631;28;20048;-63
2022/04/09 11:35:10;;;;;;;3.72;1.23;;;18.00;86.20;;;;;;5075204;28;20517;-63
2022/04/09 11:37:49;;;;;;;6.72;1.65;;;17.70;85.90;;;;;;5075514;28;20056;-63
2022/04/09 11:40:16;;;;;;;4.13;1.50;;;18.20;86.10;;;;;;5075414;28;20120;-63
2022/04/09 11:42:43;;;;;;;3.58;1.25;;;18.10;86.10;;;;;;5075137;28;20051;-62
2022/04/09 11:45:19;;;;;;;4.78;1.30;;;18.00;85.90;;;;;;5074086;28;20071;-63
2022/04/09 11:47:45;;;;;;;5.30;1.55;;;18.00;85.80;;;;;;5074612;28;20127;-63
2022/04/09 11:50:12;;;;;;;4.93;1.52;;;18.00;85.70;;;;;;5075156;28;20076;-63
2022/04/09 11:52:37;;;;;;;2.70;0.88;;;18.10;85.70;;;;;;5075204;28;20111;-63
2022/04/09 11:55:08;;;;;;;5.72;1.48;;;;;;;;;;5075446;28;20049;-63
2022/04/09 11:57:34;;;;;;;4.10;1.17;;;18.30;85.70;;;;;;5075099;28;20048;-61
2022/04/09 11:59:59;;;;;;;5.40;1.40;;;18.40;83.20;;;;;;5073721;28;20106;-63
2022/04/09 12:02:25;;;;;;;3.97;1.05;;;18.10;85.50;;;;;;5057160;28;20040;-62
2022/04/09 12:04:53;;;;;;;6.35;1.60;;;18.10;85.60;;;;;;5075203;28;20078;-63
2022/04/09 12:07:19;;;;;;;4.55;1.30;;;18.20;85.50;;;;;;5073078;28;20040;-63
2022/04/09 12:09:45;;;;;;;4.75;1.23;;;18.10;85.40;;;;;;5074740;28;20059;-62
2022/04/09 12:12:11;;;;;;;3.40;1.60;;;18.10;82.80;;;;;;5074847;28;20410;-63
2022/04/09 12:14:37;;;;;;;3.38;1.20;;;18.20;85.50;;;;;;5073172;28;20044;-63
2022/04/09 12:17:32;;;;;;;4.40;1.27;;;18.20;82.80;;;;;;5074726;28;20055;-63
2022/04/09 12:19:58;;;;;;;3.83;0.98;;;18.10;82.90;;;;;;5073607;28;20052;-63
2022/04/09 12:22:24;;;;;;;5.53;1.38;;;18.10;83.00;;;;;;5088715;28;20036;-62
2022/04/09 12:24:54;;;;;;;4.28;1.23;;;18.30;85.60;;;;;;5094789;28;20036;-63
2022/04/09 12:27:21;;;;;;;5.45;1.50;;;18.10;82.10;;;;;;5093632;28;20059;-63
2022/04/09 12:29:54;;;;;;;4.93;1.60;;;18.30;85.30;;;;;;5094632;28;20401;-63
2022/04/09 12:32:23;;;;;;;5.10;1.48;;;18.30;82.70;;;;;;5093171;28;20046;-63
2022/04/09 12:34:55;;;;;;;5.38;1.20;;;18.10;81.10;;;;;;5093349;28;20055;-64
2022/04/09 12:37:22;;;;;;;5.28;1.30;;;18.30;83.00;;;;;;5094619;28;20039;-64
2022/04/09 12:39:48;;;;;;;5.70;1.60;;;18.00;85.40;;;;;;5092440;28;20048;-63
2022/04/09 12:42:15;;;;;;;5.97;2.03;;;18.10;86.00;;;;;;5093001;28;20455;-62
2022/04/09 12:44:41;;;;;;;4.68;1.50;;;18.10;85.90;;;;;;5093601;28;20047;-64
2022/04/09 12:47:08;;;;;;;4.57;1.40;;;18.00;85.70;;;;;;5094349;28;20044;-63
2022/04/09 12:49:34;;;;;;;4.85;1.40;;;18.00;85.80;;;;;;5093924;28;20055;-62
2022/04/09 12:52:01;;;;;;;6.18;1.27;;;17.60;85.60;;;;;;5093980;28;20079;-63
2022/04/09 12:54:28;;;;;;;4.13;1.30;;;;;;;;;;5093080;28;20036;-63